Back to Top

Language: 

My Weather Underground Personal Weather Station Historical Data with Graphs...

Delerius Weather Station Historical Data
Daily Summary for March 30, 2017 Units:  Both    English   Metric
« Previous Day
Next Day »
Daily Weekly Monthly Yearly Custom
  High: Low: Average:
Temperature: 65.1 °F /  18.4 °C 55.0 °F /  12.8 °C 59 °F /  15 °C
Dew Point: 55.0 °F /  12.8 °C 47.8 °F /  8.8 °C 51.9 °F /  11.1 °C
Humidity: 90 % 61 % 78 %
Wind Speed: 18.0 mph /  29 km/h - 10.2 mph /  16.4 km/h
Wind Gust: 30.0 mph /  48.3 km/h - -
Wind:- - SSW
Pressure: 30.01 in /  1016.1 hPa 29.84 in /  1010.4 hPa -
Precipitation: 0.01 in /  0.25 mm    
Historical Graphs
 
 
Tabular Data for March 30, 2017
Time Temperature Dew Point Pressure Wind Wind Speed Wind Gust Humidity Rainfall Rate (Hourly) solar Conditions
00:04 55.8 °F /  13.2 °C 52.3 °F /  11.3 °C 30.01 in /  1016.1 hPa SSW 11.0 mph /  17.7 km/h 19.0 mph /  30.6 km/h 88 % 0.00 in /  0 mm 0 W/m2
00:09 55.8 °F /  13.2 °C 52.3 °F /  11.3 °C 30.01 in /  1016.1 hPa SSW 11.0 mph /  17.7 km/h 19.0 mph /  30.6 km/h 88 % 0.00 in /  0 mm 0 W/m2
00:14 55.8 °F /  13.2 °C 52.3 °F /  11.3 °C 30.01 in /  1016.1 hPa SSW 10.0 mph /  16.1 km/h 18.0 mph /  29 km/h 88 % 0.00 in /  0 mm 0 W/m2
00:17 55.6 °F /  13.1 °C 52.1 °F /  11.2 °C 30.00 in /  1015.8 hPa SSW 10.0 mph /  16.1 km/h 18.0 mph /  29 km/h 88 % 0.00 in /  0 mm 0 W/m2
00:22 55.8 °F /  13.2 °C 52.3 °F /  11.3 °C 30.00 in /  1015.8 hPa SSW 11.0 mph /  17.7 km/h 22.0 mph /  35.4 km/h 88 % 0.00 in /  0 mm 0 W/m2
00:27 55.6 °F /  13.1 °C 52.1 °F /  11.2 °C 30.00 in /  1015.8 hPa SSW 12.0 mph /  19.3 km/h 22.0 mph /  35.4 km/h 88 % 0.00 in /  0 mm 0 W/m2
00:32 55.6 °F /  13.1 °C 52.1 °F /  11.2 °C 30.01 in /  1016.1 hPa SW 12.0 mph /  19.3 km/h 19.0 mph /  30.6 km/h 88 % 0.00 in /  0 mm 0 W/m2
00:37 55.6 °F /  13.1 °C 52.4 °F /  11.3 °C 30.00 in /  1015.8 hPa SW 12.0 mph /  19.3 km/h 28.0 mph /  45.1 km/h 89 % 0.00 in /  0 mm 0 W/m2
00:41 55.4 °F /  13 °C 52.2 °F /  11.2 °C 30.00 in /  1015.8 hPa SSW 11.0 mph /  17.7 km/h 28.0 mph /  45.1 km/h 89 % 0.00 in /  0 mm 0 W/m2
00:46 55.2 °F /  12.9 °C 52.0 °F /  11.1 °C 30.00 in /  1015.8 hPa SSW 9.0 mph /  14.5 km/h 14.0 mph /  22.5 km/h 89 % 0.00 in /  0 mm 0 W/m2
00:52 55.0 °F /  12.8 °C 51.9 °F /  11.1 °C 30.00 in /  1015.8 hPa SSW 9.0 mph /  14.5 km/h 13.0 mph /  20.9 km/h 89 % 0.00 in /  0 mm 0 W/m2
00:57 55.0 °F /  12.8 °C 51.9 °F /  11.1 °C 30.01 in /  1016.1 hPa SSW 9.0 mph /  14.5 km/h 16.0 mph /  25.7 km/h 89 % 0.00 in /  0 mm 0 W/m2
01:02 55.0 °F /  12.8 °C 51.9 °F /  11.1 °C 30.00 in /  1015.8 hPa SSW 9.0 mph /  14.5 km/h 16.0 mph /  25.7 km/h 89 % 0.00 in /  0 mm 0 W/m2
01:07 55.0 °F /  12.8 °C 51.9 °F /  11.1 °C 30.00 in /  1015.8 hPa SSW 9.0 mph /  14.5 km/h 18.0 mph /  29 km/h 89 % 0.00 in /  0 mm 0 W/m2
01:12 55.0 °F /  12.8 °C 51.9 °F /  11.1 °C 30.00 in /  1015.8 hPa SSW 10.0 mph /  16.1 km/h 18.0 mph /  29 km/h 89 % 0.00 in /  0 mm 0 W/m2
01:17 55.0 °F /  12.8 °C 51.9 °F /  11.1 °C 30.00 in /  1015.8 hPa SSW 9.0 mph /  14.5 km/h 16.0 mph /  25.7 km/h 89 % 0.00 in /  0 mm 0 W/m2
01:22 55.0 °F /  12.8 °C 51.9 °F /  11.1 °C 30.00 in /  1015.8 hPa SSW 9.0 mph /  14.5 km/h 19.0 mph /  30.6 km/h 89 % 0.00 in /  0 mm 0 W/m2
01:27 55.0 °F /  12.8 °C 51.9 °F /  11.1 °C 30.00 in /  1015.8 hPa SSW 9.0 mph /  14.5 km/h 19.0 mph /  30.6 km/h 89 % 0.00 in /  0 mm 0 W/m2
01:32 55.0 °F /  12.8 °C 51.9 °F /  11.1 °C 30.00 in /  1015.8 hPa SSW 10.0 mph /  16.1 km/h 16.0 mph /  25.7 km/h 89 % 0.00 in /  0 mm 0 W/m2
01:37 55.0 °F /  12.8 °C 51.9 °F /  11.1 °C 30.00 in /  1015.8 hPa SSW 10.0 mph /  16.1 km/h 16.0 mph /  25.7 km/h 89 % 0.00 in /  0 mm 0 W/m2
01:42 55.0 °F /  12.8 °C 51.9 °F /  11.1 °C 30.00 in /  1015.8 hPa SSW 9.0 mph /  14.5 km/h 16.0 mph /  25.7 km/h 89 % 0.00 in /  0 mm 0 W/m2
01:47 55.0 °F /  12.8 °C 51.9 °F /  11.1 °C 30.00 in /  1015.8 hPa SSW 9.0 mph /  14.5 km/h 14.0 mph /  22.5 km/h 89 % 0.00 in /  0 mm 0 W/m2
01:48 55.0 °F /  12.8 °C 51.9 °F /  11.1 °C 30.00 in /  1015.8 hPa SSW 9.0 mph /  14.5 km/h 14.0 mph /  22.5 km/h 89 % 0.00 in /  0 mm 0 W/m2
01:53 55.0 °F /  12.8 °C 51.9 °F /  11.1 °C 30.00 in /  1015.8 hPa SSW 9.0 mph /  14.5 km/h 14.0 mph /  22.5 km/h 89 % 0.00 in /  0 mm 0 W/m2
01:58 55.0 °F /  12.8 °C 51.9 °F /  11.1 °C 30.00 in /  1015.8 hPa SSW 8.0 mph /  12.9 km/h 14.0 mph /  22.5 km/h 89 % 0.00 in /  0 mm 0 W/m2
01:59 55.0 °F /  12.8 °C 51.9 °F /  11.1 °C 30.00 in /  1015.8 hPa SSW 8.0 mph /  12.9 km/h 14.0 mph /  22.5 km/h 89 % 0.00 in /  0 mm 0 W/m2
02:04 55.0 °F /  12.8 °C 51.9 °F /  11.1 °C 30.00 in /  1015.8 hPa SSW 8.0 mph /  12.9 km/h 14.0 mph /  22.5 km/h 89 % 0.00 in /  0 mm 0 W/m2
02:09 55.0 °F /  12.8 °C 51.9 °F /  11.1 °C 30.00 in /  1015.8 hPa SW 8.0 mph /  12.9 km/h 12.0 mph /  19.3 km/h 89 % 0.00 in /  0 mm 0 W/m2
02:10 55.0 °F /  12.8 °C 51.9 °F /  11.1 °C 30.00 in /  1015.8 hPa SW 8.0 mph /  12.9 km/h 12.0 mph /  19.3 km/h 89 % 0.00 in /  0 mm 0 W/m2
02:15 55.0 °F /  12.8 °C 52.2 °F /  11.2 °C 30.00 in /  1015.8 hPa SW 8.0 mph /  12.9 km/h 14.0 mph /  22.5 km/h 90 % 0.00 in /  0 mm 0 W/m2
02:20 55.0 °F /  12.8 °C 51.9 °F /  11.1 °C 29.99 in /  1015.5 hPa SSW 10.0 mph /  16.1 km/h 18.0 mph /  29 km/h 89 % 0.00 in /  0 mm 0 W/m2
02:25 55.2 °F /  12.9 °C 52.0 °F /  11.1 °C 29.99 in /  1015.5 hPa SSW 11.0 mph /  17.7 km/h 18.0 mph /  29 km/h 89 % 0.00 in /  0 mm 0 W/m2
02:30 55.2 °F /  12.9 °C 52.0 °F /  11.1 °C 29.99 in /  1015.5 hPa SW 10.0 mph /  16.1 km/h 15.0 mph /  24.1 km/h 89 % 0.00 in /  0 mm 0 W/m2
02:35 55.2 °F /  12.9 °C 52.0 °F /  11.1 °C 29.99 in /  1015.5 hPa SW 10.0 mph /  16.1 km/h 22.0 mph /  35.4 km/h 89 % 0.00 in /  0 mm 0 W/m2
02:40 55.2 °F /  12.9 °C 52.0 °F /  11.1 °C 29.99 in /  1015.5 hPa SSW 11.0 mph /  17.7 km/h 22.0 mph /  35.4 km/h 89 % 0.00 in /  0 mm 0 W/m2
02:45 55.2 °F /  12.9 °C 52.0 °F /  11.1 °C 29.99 in /  1015.5 hPa SW 9.0 mph /  14.5 km/h 16.0 mph /  25.7 km/h 89 % 0.00 in /  0 mm 0 W/m2
02:50 55.4 °F /  13 °C 52.2 °F /  11.2 °C 29.99 in /  1015.5 hPa SW 9.0 mph /  14.5 km/h 19.0 mph /  30.6 km/h 89 % 0.00 in /  0 mm 0 W/m2
02:55 55.4 °F /  13 °C 52.2 °F /  11.2 °C 29.99 in /  1015.5 hPa SW 10.0 mph /  16.1 km/h 19.0 mph /  30.6 km/h 89 % 0.00 in /  0 mm 0 W/m2
03:00 55.4 °F /  13 °C 52.2 °F /  11.2 °C 29.99 in /  1015.5 hPa SSW 10.0 mph /  16.1 km/h 19.0 mph /  30.6 km/h 89 % 0.00 in /  0 mm 0 W/m2
03:06 55.4 °F /  13 °C 52.2 °F /  11.2 °C 29.99 in /  1015.5 hPa SSW 10.0 mph /  16.1 km/h 19.0 mph /  30.6 km/h 89 % 0.00 in /  0 mm 0 W/m2
03:11 55.6 °F /  13.1 °C 52.1 °F /  11.2 °C 29.99 in /  1015.5 hPa SW 10.0 mph /  16.1 km/h 15.0 mph /  24.1 km/h 88 % 0.00 in /  0 mm 0 W/m2
03:16 55.6 °F /  13.1 °C 52.1 °F /  11.2 °C 29.99 in /  1015.5 hPa SW 11.0 mph /  17.7 km/h 20.0 mph /  32.2 km/h 88 % 0.00 in /  0 mm 0 W/m2
03:21 55.6 °F /  13.1 °C 52.1 °F /  11.2 °C 29.99 in /  1015.5 hPa SW 11.0 mph /  17.7 km/h 20.0 mph /  32.2 km/h 88 % 0.00 in /  0 mm 0 W/m2
03:26 55.6 °F /  13.1 °C 52.1 °F /  11.2 °C 29.98 in /  1015.1 hPa SSW 10.0 mph /  16.1 km/h 15.0 mph /  24.1 km/h 88 % 0.00 in /  0 mm 0 W/m2
03:31 55.6 °F /  13.1 °C 52.1 °F /  11.2 °C 29.98 in /  1015.1 hPa SSW 10.0 mph /  16.1 km/h 16.0 mph /  25.7 km/h 88 % 0.00 in /  0 mm 0 W/m2
03:36 55.6 °F /  13.1 °C 52.1 °F /  11.2 °C 29.98 in /  1015.1 hPa SW 11.0 mph /  17.7 km/h 16.0 mph /  25.7 km/h 88 % 0.00 in /  0 mm 0 W/m2
03:41 55.6 °F /  13.1 °C 52.1 °F /  11.2 °C 29.98 in /  1015.1 hPa SW 11.0 mph /  17.7 km/h 16.0 mph /  25.7 km/h 88 % 0.00 in /  0 mm 0 W/m2
03:46 55.6 °F /  13.1 °C 52.1 °F /  11.2 °C 29.98 in /  1015.1 hPa SW 10.0 mph /  16.1 km/h 16.0 mph /  25.7 km/h 88 % 0.00 in /  0 mm 0 W/m2
03:51 55.6 °F /  13.1 °C 52.1 °F /  11.2 °C 29.98 in /  1015.1 hPa SW 10.0 mph /  16.1 km/h 16.0 mph /  25.7 km/h 88 % 0.00 in /  0 mm 0 W/m2
03:56 55.6 °F /  13.1 °C 52.1 °F /  11.2 °C 29.98 in /  1015.1 hPa SW 9.0 mph /  14.5 km/h 15.0 mph /  24.1 km/h 88 % 0.00 in /  0 mm 0 W/m2
04:01 55.6 °F /  13.1 °C 52.1 °F /  11.2 °C 29.98 in /  1015.1 hPa SSW 10.0 mph /  16.1 km/h 16.0 mph /  25.7 km/h 88 % 0.00 in /  0 mm 0 W/m2
04:06 55.6 °F /  13.1 °C 52.1 °F /  11.2 °C 29.98 in /  1015.1 hPa SSW 10.0 mph /  16.1 km/h 18.0 mph /  29 km/h 88 % 0.00 in /  0 mm 0 W/m2
04:11 55.6 °F /  13.1 °C 52.1 °F /  11.2 °C 29.98 in /  1015.1 hPa SW 11.0 mph /  17.7 km/h 18.0 mph /  29 km/h 88 % 0.00 in /  0 mm 0 W/m2
04:16 55.6 °F /  13.1 °C 52.1 °F /  11.2 °C 29.98 in /  1015.1 hPa SW 10.0 mph /  16.1 km/h 16.0 mph /  25.7 km/h 88 % 0.00 in /  0 mm 0 W/m2
04:21 55.6 °F /  13.1 °C 52.1 °F /  11.2 °C 29.98 in /  1015.1 hPa SSW 9.0 mph /  14.5 km/h 16.0 mph /  25.7 km/h 88 % 0.00 in /  0 mm 0 W/m2
04:26 55.6 °F /  13.1 °C 52.1 °F /  11.2 °C 29.98 in /  1015.1 hPa SSW 10.0 mph /  16.1 km/h 18.0 mph /  29 km/h 88 % 0.00 in /  0 mm 0 W/m2
04:31 55.6 °F /  13.1 °C 52.1 °F /  11.2 °C 29.98 in /  1015.1 hPa SSW 11.0 mph /  17.7 km/h 18.0 mph /  29 km/h 88 % 0.00 in /  0 mm 0 W/m2
04:36 55.6 °F /  13.1 °C 52.1 °F /  11.2 °C 29.98 in /  1015.1 hPa SW 9.0 mph /  14.5 km/h 16.0 mph /  25.7 km/h 88 % 0.00 in /  0 mm 0 W/m2
04:41 55.6 °F /  13.1 °C 52.1 °F /  11.2 °C 29.98 in /  1015.1 hPa SW 8.0 mph /  12.9 km/h 11.0 mph /  17.7 km/h 88 % 0.00 in /  0 mm 0 W/m2
04:46 55.6 °F /  13.1 °C 52.1 °F /  11.2 °C 29.98 in /  1015.1 hPa SW 7.0 mph /  11.3 km/h 11.0 mph /  17.7 km/h 88 % 0.00 in /  0 mm 0 W/m2
04:51 55.6 °F /  13.1 °C 52.1 °F /  11.2 °C 29.98 in /  1015.1 hPa SW 7.0 mph /  11.3 km/h 14.0 mph /  22.5 km/h 88 % 0.00 in /  0 mm 0 W/m2
04:56 55.6 °F /  13.1 °C 52.1 °F /  11.2 °C 29.98 in /  1015.1 hPa SW 8.0 mph /  12.9 km/h 14.0 mph /  22.5 km/h 88 % 0.00 in /  0 mm 0 W/m2
05:01 55.6 °F /  13.1 °C 52.1 °F /  11.2 °C 29.98 in /  1015.1 hPa SW 9.0 mph /  14.5 km/h 19.0 mph /  30.6 km/h 88 % 0.00 in /  0 mm 0 W/m2
05:06 55.6 °F /  13.1 °C 52.1 °F /  11.2 °C 29.98 in /  1015.1 hPa SW 10.0 mph /  16.1 km/h 19.0 mph /  30.6 km/h 88 % 0.00 in /  0 mm 0 W/m2
05:11 55.6 °F /  13.1 °C 52.1 °F /  11.2 °C 29.98 in /  1015.1 hPa SW 8.0 mph /  12.9 km/h 13.0 mph /  20.9 km/h 88 % 0.00 in /  0 mm 0 W/m2
05:16 55.6 °F /  13.1 °C 52.1 °F /  11.2 °C 29.98 in /  1015.1 hPa SW 8.0 mph /  12.9 km/h 13.0 mph /  20.9 km/h 88 % 0.00 in /  0 mm 0 W/m2
05:21 55.6 °F /  13.1 °C 52.1 °F /  11.2 °C 29.98 in /  1015.1 hPa SW 8.0 mph /  12.9 km/h 15.0 mph /  24.1 km/h 88 % 0.00 in /  0 mm 0 W/m2
05:22 55.6 °F /  13.1 °C 52.1 °F /  11.2 °C 29.98 in /  1015.1 hPa SW 8.0 mph /  12.9 km/h 15.0 mph /  24.1 km/h 88 % 0.00 in /  0 mm 0 W/m2
05:27 55.6 °F /  13.1 °C 52.1 °F /  11.2 °C 29.98 in /  1015.1 hPa SW 8.0 mph /  12.9 km/h 15.0 mph /  24.1 km/h 88 % 0.00 in /  0 mm 0 W/m2
05:32 55.6 °F /  13.1 °C 52.1 °F /  11.2 °C 29.98 in /  1015.1 hPa SW 8.0 mph /  12.9 km/h 13.0 mph /  20.9 km/h 88 % 0.00 in /  0 mm 0 W/m2
05:37 55.6 °F /  13.1 °C 51.8 °F /  11 °C 29.98 in /  1015.1 hPa SW 10.0 mph /  16.1 km/h 18.0 mph /  29 km/h 87 % 0.00 in /  0 mm 0 W/m2
05:42 55.8 °F /  13.2 °C 51.9 °F /  11.1 °C 29.98 in /  1015.1 hPa SW 12.0 mph /  19.3 km/h 19.0 mph /  30.6 km/h 87 % 0.00 in /  0 mm 0 W/m2
05:47 55.8 °F /  13.2 °C 51.9 °F /  11.1 °C 29.98 in /  1015.1 hPa SW 12.0 mph /  19.3 km/h 22.0 mph /  35.4 km/h 87 % 0.00 in /  0 mm 0 W/m2
05:52 55.8 °F /  13.2 °C 51.9 °F /  11.1 °C 29.98 in /  1015.1 hPa SW 11.0 mph /  17.7 km/h 22.0 mph /  35.4 km/h 87 % 0.00 in /  0 mm 0 W/m2
05:57 55.8 °F /  13.2 °C 51.9 °F /  11.1 °C 29.98 in /  1015.1 hPa SW 11.0 mph /  17.7 km/h 18.0 mph /  29 km/h 87 % 0.00 in /  0 mm 0 W/m2
06:02 55.8 °F /  13.2 °C 51.9 °F /  11.1 °C 29.98 in /  1015.1 hPa SW 11.0 mph /  17.7 km/h 20.0 mph /  32.2 km/h 87 % 0.00 in /  0 mm 0 W/m2
06:07 55.8 °F /  13.2 °C 51.9 °F /  11.1 °C 29.98 in /  1015.1 hPa SW 11.0 mph /  17.7 km/h 24.0 mph /  38.6 km/h 87 % 0.00 in /  0 mm 0 W/m2
06:12 55.6 °F /  13.1 °C 51.5 °F /  10.8 °C 29.98 in /  1015.1 hPa SW 12.0 mph /  19.3 km/h 24.0 mph /  38.6 km/h 86 % 0.00 in /  0 mm 0 W/m2
06:17 55.6 °F /  13.1 °C 51.5 °F /  10.8 °C 29.97 in /  1014.8 hPa SW 13.0 mph /  20.9 km/h 21.0 mph /  33.8 km/h 86 % 0.00 in /  0 mm 0 W/m2
06:22 55.4 °F /  13 °C 51.3 °F /  10.7 °C 29.97 in /  1014.8 hPa SW 12.0 mph /  19.3 km/h 21.0 mph /  33.8 km/h 86 % 0.00 in /  0 mm 0 W/m2
06:27 55.2 °F /  12.9 °C 51.1 °F /  10.6 °C 29.98 in /  1015.1 hPa SW 12.0 mph /  19.3 km/h 22.0 mph /  35.4 km/h 86 % 0.00 in /  0 mm 0 W/m2
06:32 55.2 °F /  12.9 °C 51.1 °F /  10.6 °C 29.98 in /  1015.1 hPa SW 11.0 mph /  17.7 km/h 22.0 mph /  35.4 km/h 86 % 0.00 in /  0 mm 0 W/m2
06:37 55.2 °F /  12.9 °C 51.1 °F /  10.6 °C 29.98 in /  1015.1 hPa SW 11.0 mph /  17.7 km/h 18.0 mph /  29 km/h 86 % 0.00 in /  0 mm 0 W/m2
06:42 55.0 °F /  12.8 °C 50.9 °F /  10.5 °C 29.98 in /  1015.1 hPa SW 12.0 mph /  19.3 km/h 21.0 mph /  33.8 km/h 86 % 0.00 in /  0 mm 0 W/m2
06:47 55.0 °F /  12.8 °C 51.2 °F /  10.7 °C 29.98 in /  1015.1 hPa SW 12.0 mph /  19.3 km/h 21.0 mph /  33.8 km/h 87 % 0.00 in /  0 mm 0 W/m2
06:52 55.0 °F /  12.8 °C 51.2 °F /  10.7 °C 29.98 in /  1015.1 hPa SW 13.0 mph /  20.9 km/h 20.0 mph /  32.2 km/h 87 % 0.00 in /  0 mm 7 W/m2
06:57 55.0 °F /  12.8 °C 51.2 °F /  10.7 °C 29.98 in /  1015.1 hPa SW 13.0 mph /  20.9 km/h 20.0 mph /  32.2 km/h 87 % 0.00 in /  0 mm 12 W/m2
07:02 55.0 °F /  12.8 °C 51.2 °F /  10.7 °C 29.98 in /  1015.1 hPa SW 12.0 mph /  19.3 km/h 20.0 mph /  32.2 km/h 87 % 0.00 in /  0 mm 14 W/m2
07:07 55.0 °F /  12.8 °C 50.9 °F /  10.5 °C 29.99 in /  1015.5 hPa SW 12.0 mph /  19.3 km/h 19.0 mph /  30.6 km/h 86 % 0.00 in /  0 mm 11 W/m2
07:12 55.2 °F /  12.9 °C 51.4 °F /  10.8 °C 29.99 in /  1015.5 hPa SW 11.0 mph /  17.7 km/h 19.0 mph /  30.6 km/h 87 % 0.00 in /  0 mm 14 W/m2
07:17 55.0 °F /  12.8 °C 51.2 °F /  10.7 °C 29.99 in /  1015.5 hPa SW 10.0 mph /  16.1 km/h 16.0 mph /  25.7 km/h 87 % 0.00 in /  0 mm 23 W/m2
07:22 55.0 °F /  12.8 °C 51.2 °F /  10.7 °C 29.98 in /  1015.1 hPa SW 10.0 mph /  16.1 km/h 19.0 mph /  30.6 km/h 87 % 0.00 in /  0 mm 32 W/m2
07:28 55.0 °F /  12.8 °C 51.2 °F /  10.7 °C 29.98 in /  1015.1 hPa SW 11.0 mph /  17.7 km/h 19.0 mph /  30.6 km/h 87 % 0.00 in /  0 mm 39 W/m2
07:33 55.0 °F /  12.8 °C 51.2 °F /  10.7 °C 29.98 in /  1015.1 hPa SW 12.0 mph /  19.3 km/h 18.0 mph /  29 km/h 87 % 0.00 in /  0 mm 39 W/m2
07:38 55.0 °F /  12.8 °C 51.2 °F /  10.7 °C 29.99 in /  1015.5 hPa SW 10.0 mph /  16.1 km/h 18.0 mph /  29 km/h 87 % 0.00 in /  0 mm 33 W/m2
07:43 55.2 °F /  12.9 °C 51.4 °F /  10.8 °C 29.99 in /  1015.5 hPa SW 9.0 mph /  14.5 km/h 14.0 mph /  22.5 km/h 87 % 0.00 in /  0 mm 40 W/m2
07:48 55.2 °F /  12.9 °C 51.4 °F /  10.8 °C 29.99 in /  1015.5 hPa SW 9.0 mph /  14.5 km/h 14.0 mph /  22.5 km/h 87 % 0.00 in /  0 mm 44 W/m2
07:53 55.2 °F /  12.9 °C 51.4 °F /  10.8 °C 29.99 in /  1015.5 hPa SW 10.0 mph /  16.1 km/h 16.0 mph /  25.7 km/h 87 % 0.00 in /  0 mm 54 W/m2
07:58 55.2 °F /  12.9 °C 51.4 °F /  10.8 °C 29.99 in /  1015.5 hPa SW 10.0 mph /  16.1 km/h 16.0 mph /  25.7 km/h 87 % 0.00 in /  0 mm 76 W/m2
08:03 55.2 °F /  12.9 °C 51.4 °F /  10.8 °C 29.99 in /  1015.5 hPa SW 11.0 mph /  17.7 km/h 20.0 mph /  32.2 km/h 87 % 0.00 in /  0 mm 93 W/m2
08:08 55.4 °F /  13 °C 51.6 °F /  10.9 °C 29.99 in /  1015.5 hPa SW 12.0 mph /  19.3 km/h 20.0 mph /  32.2 km/h 87 % 0.00 in /  0 mm 125 W/m2
08:13 55.6 °F /  13.1 °C 51.8 °F /  11 °C 29.99 in /  1015.5 hPa SW 12.0 mph /  19.3 km/h 19.0 mph /  30.6 km/h 87 % 0.00 in /  0 mm 148 W/m2
08:18 55.8 °F /  13.2 °C 51.6 °F /  10.9 °C 29.99 in /  1015.5 hPa SW 11.0 mph /  17.7 km/h 19.0 mph /  30.6 km/h 86 % 0.00 in /  0 mm 93 W/m2
08:23 55.8 °F /  13.2 °C 51.6 °F /  10.9 °C 29.99 in /  1015.5 hPa SW 10.0 mph /  16.1 km/h 19.0 mph /  30.6 km/h 86 % 0.00 in /  0 mm 81 W/m2
08:28 55.8 °F /  13.2 °C 51.6 °F /  10.9 °C 29.99 in /  1015.5 hPa SW 9.0 mph /  14.5 km/h 19.0 mph /  30.6 km/h 86 % 0.00 in /  0 mm 95 W/m2
08:33 55.9 °F /  13.3 °C 51.8 °F /  11 °C 29.99 in /  1015.5 hPa SW 9.0 mph /  14.5 km/h 16.0 mph /  25.7 km/h 86 % 0.00 in /  0 mm 128 W/m2
08:38 55.9 °F /  13.3 °C 51.8 °F /  11 °C 29.99 in /  1015.5 hPa SW 10.0 mph /  16.1 km/h 15.0 mph /  24.1 km/h 86 % 0.00 in /  0 mm 127 W/m2
08:43 56.1 °F /  13.4 °C 52.0 °F /  11.1 °C 29.99 in /  1015.5 hPa SW 9.0 mph /  14.5 km/h 15.0 mph /  24.1 km/h 86 % 0.00 in /  0 mm 123 W/m2
08:48 56.1 °F /  13.4 °C 52.0 °F /  11.1 °C 29.99 in /  1015.5 hPa SW 9.0 mph /  14.5 km/h 15.0 mph /  24.1 km/h 86 % 0.00 in /  0 mm 137 W/m2
08:53 56.3 °F /  13.5 °C 52.2 °F /  11.2 °C 29.99 in /  1015.5 hPa SW 9.0 mph /  14.5 km/h 15.0 mph /  24.1 km/h 86 % 0.00 in /  0 mm 181 W/m2
08:58 56.5 °F /  13.6 °C 52.3 °F /  11.3 °C 29.99 in /  1015.5 hPa SW 8.0 mph /  12.9 km/h 14.0 mph /  22.5 km/h 86 % 0.00 in /  0 mm 195 W/m2
09:03 56.7 °F /  13.7 °C 52.2 °F /  11.2 °C 29.98 in /  1015.1 hPa SW 8.0 mph /  12.9 km/h 16.0 mph /  25.7 km/h 85 % 0.00 in /  0 mm 230 W/m2
09:08 57.0 °F /  13.9 °C 52.6 °F /  11.4 °C 29.98 in /  1015.1 hPa SW 10.0 mph /  16.1 km/h 18.0 mph /  29 km/h 85 % 0.00 in /  0 mm 251 W/m2
09:13 57.2 °F /  14 °C 52.4 °F /  11.3 °C 29.99 in /  1015.5 hPa SSW 11.0 mph /  17.7 km/h 19.0 mph /  30.6 km/h 84 % 0.00 in /  0 mm 148 W/m2
09:15 57.2 °F /  14 °C 52.4 °F /  11.3 °C 29.99 in /  1015.5 hPa SSW 11.0 mph /  17.7 km/h 19.0 mph /  30.6 km/h 84 % 0.00 in /  0 mm 156 W/m2
09:20 57.4 °F /  14.1 °C 52.6 °F /  11.4 °C 29.99 in /  1015.5 hPa SSW 10.0 mph /  16.1 km/h 19.0 mph /  30.6 km/h 84 % 0.00 in /  0 mm 179 W/m2
09:25 57.4 °F /  14.1 °C 52.6 °F /  11.4 °C 29.99 in /  1015.5 hPa SSW 10.0 mph /  16.1 km/h 19.0 mph /  30.6 km/h 84 % 0.00 in /  0 mm 162 W/m2
09:30 57.4 °F /  14.1 °C 52.6 °F /  11.4 °C 29.98 in /  1015.1 hPa SSW 11.0 mph /  17.7 km/h 19.0 mph /  30.6 km/h 84 % 0.00 in /  0 mm 153 W/m2
09:35 57.4 °F /  14.1 °C 52.6 °F /  11.4 °C 29.99 in /  1015.5 hPa SSW 11.0 mph /  17.7 km/h 19.0 mph /  30.6 km/h 84 % 0.00 in /  0 mm 84 W/m2
09:40 57.0 °F /  13.9 °C 52.2 °F /  11.2 °C 29.99 in /  1015.5 hPa SSW 11.0 mph /  17.7 km/h 18.0 mph /  29 km/h 84 % 0.00 in /  0 mm 56 W/m2
09:45 57.0 °F /  13.9 °C 52.6 °F /  11.4 °C 29.99 in /  1015.5 hPa SSW 10.0 mph /  16.1 km/h 18.0 mph /  29 km/h 85 % 0.00 in /  0 mm 49 W/m2
09:50 56.8 °F /  13.8 °C 52.7 °F /  11.5 °C 29.99 in /  1015.5 hPa SSW 9.0 mph /  14.5 km/h 18.0 mph /  29 km/h 86 % 0.00 in /  0 mm 70 W/m2
09:55 56.8 °F /  13.8 °C 52.7 °F /  11.5 °C 29.99 in /  1015.5 hPa SSW 10.0 mph /  16.1 km/h 20.0 mph /  32.2 km/h 86 % 0.00 in /  0 mm 102 W/m2
10:00 56.7 °F /  13.7 °C 52.8 °F /  11.6 °C 29.99 in /  1015.5 hPa SSW 11.0 mph /  17.7 km/h 20.0 mph /  32.2 km/h 87 % 0.00 in /  0 mm 160 W/m2
10:05 56.7 °F /  13.7 °C 52.8 °F /  11.6 °C 29.98 in /  1015.1 hPa SSW 11.0 mph /  17.7 km/h 19.0 mph /  30.6 km/h 87 % 0.00 in /  0 mm 172 W/m2
10:10 56.7 °F /  13.7 °C 53.1 °F /  11.7 °C 29.99 in /  1015.5 hPa SSW 11.0 mph /  17.7 km/h 19.0 mph /  30.6 km/h 88 % 0.00 in /  0 mm 167 W/m2
10:15 56.8 °F /  13.8 °C 53.3 °F /  11.8 °C 29.99 in /  1015.5 hPa SSW 11.0 mph /  17.7 km/h 19.0 mph /  30.6 km/h 88 % 0.00 in /  0 mm 315 W/m2
10:20 57.0 °F /  13.9 °C 53.5 °F /  11.9 °C 29.99 in /  1015.5 hPa SW 10.0 mph /  16.1 km/h 16.0 mph /  25.7 km/h 88 % 0.00 in /  0 mm 241 W/m2
10:25 57.2 °F /  14 °C 53.4 °F /  11.9 °C 29.99 in /  1015.5 hPa SSW 11.0 mph /  17.7 km/h 19.0 mph /  30.6 km/h 87 % 0.00 in /  0 mm 207 W/m2
10:30 57.2 °F /  14 °C 53.4 °F /  11.9 °C 29.99 in /  1015.5 hPa SSW 10.0 mph /  16.1 km/h 19.0 mph /  30.6 km/h 87 % 0.00 in /  0 mm 243 W/m2
10:35 57.4 °F /  14.1 °C 53.5 °F /  11.9 °C 29.99 in /  1015.5 hPa SSW 9.0 mph /  14.5 km/h 14.0 mph /  22.5 km/h 87 % 0.00 in /  0 mm 234 W/m2
10:41 57.4 °F /  14.1 °C 53.5 °F /  11.9 °C 29.99 in /  1015.5 hPa SSW 8.0 mph /  12.9 km/h 15.0 mph /  24.1 km/h 87 % 0.00 in /  0 mm 248 W/m2
10:46 57.6 °F /  14.2 °C 53.7 °F /  12.1 °C 29.98 in /  1015.1 hPa SSW 8.0 mph /  12.9 km/h 15.0 mph /  24.1 km/h 87 % 0.00 in /  0 mm 403 W/m2
10:51 57.9 °F /  14.4 °C 53.8 °F /  12.1 °C 29.99 in /  1015.5 hPa SSW 9.0 mph /  14.5 km/h 16.0 mph /  25.7 km/h 86 % 0.00 in /  0 mm 323 W/m2
10:56 58.1 °F /  14.5 °C 53.6 °F /  12 °C 29.99 in /  1015.5 hPa SSW 11.0 mph /  17.7 km/h 21.0 mph /  33.8 km/h 85 % 0.00 in /  0 mm 450 W/m2
11:01 58.5 °F /  14.7 °C 53.6 °F /  12 °C 29.99 in /  1015.5 hPa SSW 13.0 mph /  20.9 km/h 21.0 mph /  33.8 km/h 84 % 0.00 in /  0 mm 301 W/m2
11:06 58.6 °F /  14.8 °C 53.8 °F /  12.1 °C 29.99 in /  1015.5 hPa SW 13.0 mph /  20.9 km/h 20.0 mph /  32.2 km/h 84 % 0.00 in /  0 mm 355 W/m2
11:11 59.2 °F /  15.1 °C 54.0 °F /  12.2 °C 29.99 in /  1015.5 hPa SW 12.0 mph /  19.3 km/h 19.0 mph /  30.6 km/h 83 % 0.00 in /  0 mm 471 W/m2
11:16 59.4 °F /  15.2 °C 53.9 °F /  12.2 °C 29.99 in /  1015.5 hPa SSW 11.0 mph /  17.7 km/h 20.0 mph /  32.2 km/h 82 % 0.00 in /  0 mm 294 W/m2
11:21 59.4 °F /  15.2 °C 53.9 °F /  12.2 °C 29.99 in /  1015.5 hPa SW 11.0 mph /  17.7 km/h 20.0 mph /  32.2 km/h 82 % 0.00 in /  0 mm 86 W/m2
11:26 59.2 °F /  15.1 °C 53.4 °F /  11.9 °C 29.99 in /  1015.5 hPa SW 10.0 mph /  16.1 km/h 20.0 mph /  32.2 km/h 81 % 0.00 in /  0 mm 79 W/m2
11:30 59.2 °F /  15.1 °C 53.4 °F /  11.9 °C 29.99 in /  1015.5 hPa SSW 9.0 mph /  14.5 km/h 18.0 mph /  29 km/h 81 % 0.00 in /  0 mm 77 W/m2
11:35 59.0 °F /  15 °C 53.2 °F /  11.8 °C 29.99 in /  1015.5 hPa SW 11.0 mph /  17.7 km/h 21.0 mph /  33.8 km/h 81 % 0.00 in /  0 mm 127 W/m2
11:40 59.2 °F /  15.1 °C 53.4 °F /  11.9 °C 29.99 in /  1015.5 hPa SW 12.0 mph /  19.3 km/h 22.0 mph /  35.4 km/h 81 % 0.00 in /  0 mm 243 W/m2
11:45 59.2 °F /  15.1 °C 53.4 °F /  11.9 °C 29.98 in /  1015.1 hPa SW 12.0 mph /  19.3 km/h 22.0 mph /  35.4 km/h 81 % 0.00 in /  0 mm 274 W/m2
11:50 59.4 °F /  15.2 °C 53.5 °F /  11.9 °C 29.98 in /  1015.1 hPa SW 11.0 mph /  17.7 km/h 21.0 mph /  33.8 km/h 81 % 0.00 in /  0 mm 241 W/m2
11:55 59.4 °F /  15.2 °C 53.5 °F /  11.9 °C 29.98 in /  1015.1 hPa SSW 11.0 mph /  17.7 km/h 20.0 mph /  32.2 km/h 81 % 0.00 in /  0 mm 169 W/m2
12:00 59.4 °F /  15.2 °C 53.5 °F /  11.9 °C 29.98 in /  1015.1 hPa SSW 11.0 mph /  17.7 km/h 19.0 mph /  30.6 km/h 81 % 0.00 in /  0 mm 218 W/m2
12:05 59.4 °F /  15.2 °C 53.5 °F /  11.9 °C 29.98 in /  1015.1 hPa SW 13.0 mph /  20.9 km/h 21.0 mph /  33.8 km/h 81 % 0.00 in /  0 mm 116 W/m2
12:10 59.2 °F /  15.1 °C 53.4 °F /  11.9 °C 29.98 in /  1015.1 hPa SW 12.0 mph /  19.3 km/h 21.0 mph /  33.8 km/h 81 % 0.00 in /  0 mm 125 W/m2
12:15 59.2 °F /  15.1 °C 53.4 °F /  11.9 °C 29.98 in /  1015.1 hPa SSW 9.0 mph /  14.5 km/h 15.0 mph /  24.1 km/h 81 % 0.00 in /  0 mm 109 W/m2
12:20 59.2 °F /  15.1 °C 53.7 °F /  12.1 °C 29.98 in /  1015.1 hPa SSW 8.0 mph /  12.9 km/h 16.0 mph /  25.7 km/h 82 % 0.00 in /  0 mm 149 W/m2
12:25 59.4 °F /  15.2 °C 53.9 °F /  12.2 °C 29.98 in /  1015.1 hPa SSW 9.0 mph /  14.5 km/h 16.0 mph /  25.7 km/h 82 % 0.00 in /  0 mm 309 W/m2
12:30 59.7 °F /  15.4 °C 53.9 °F /  12.2 °C 29.98 in /  1015.1 hPa SSW 10.0 mph /  16.1 km/h 18.0 mph /  29 km/h 81 % 0.00 in /  0 mm 374 W/m2
12:35 60.3 °F /  15.7 °C 54.1 °F /  12.3 °C 29.98 in /  1015.1 hPa SSW 11.0 mph /  17.7 km/h 22.0 mph /  35.4 km/h 80 % 0.00 in /  0 mm 327 W/m2
12:40 60.4 °F /  15.8 °C 53.9 °F /  12.2 °C 29.97 in /  1014.8 hPa SSW 11.0 mph /  17.7 km/h 22.0 mph /  35.4 km/h 79 % 0.00 in /  0 mm 264 W/m2
12:45 60.8 °F /  16 °C 53.9 °F /  12.2 °C 29.97 in /  1014.8 hPa SSW 12.0 mph /  19.3 km/h 22.0 mph /  35.4 km/h 78 % 0.00 in /  0 mm 399 W/m2
12:50 61.0 °F /  16.1 °C 54.1 °F /  12.3 °C 29.97 in /  1014.8 hPa SSW 13.0 mph /  20.9 km/h 23.0 mph /  37 km/h 78 % 0.00 in /  0 mm 193 W/m2
12:55 61.0 °F /  16.1 °C 54.1 °F /  12.3 °C 29.97 in /  1014.8 hPa SW 13.0 mph /  20.9 km/h 23.0 mph /  37 km/h 78 % 0.00 in /  0 mm 123 W/m2
13:00 61.0 °F /  16.1 °C 54.1 °F /  12.3 °C 29.97 in /  1014.8 hPa SW 12.0 mph /  19.3 km/h 23.0 mph /  37 km/h 78 % 0.00 in /  0 mm 357 W/m2
13:05 61.0 °F /  16.1 °C 53.7 °F /  12.1 °C 29.97 in /  1014.8 hPa SW 13.0 mph /  20.9 km/h 24.0 mph /  38.6 km/h 77 % 0.00 in /  0 mm 225 W/m2
13:10 61.0 °F /  16.1 °C 53.7 °F /  12.1 °C 29.97 in /  1014.8 hPa SW 15.0 mph /  24.1 km/h 24.0 mph /  38.6 km/h 77 % 0.00 in /  0 mm 114 W/m2
13:11 61.0 °F /  16.1 °C 53.7 °F /  12.1 °C 29.97 in /  1014.8 hPa SW 15.0 mph /  24.1 km/h 24.0 mph /  38.6 km/h 77 % 0.00 in /  0 mm 114 W/m2
13:16 61.0 °F /  16.1 °C 53.7 °F /  12.1 °C 29.97 in /  1014.8 hPa SW 14.0 mph /  22.5 km/h 24.0 mph /  38.6 km/h 77 % 0.00 in /  0 mm 104 W/m2
13:21 61.0 °F /  16.1 °C 54.1 °F /  12.3 °C 29.97 in /  1014.8 hPa SW 12.0 mph /  19.3 km/h 24.0 mph /  38.6 km/h 78 % 0.00 in /  0 mm 204 W/m2
13:26 61.0 °F /  16.1 °C 53.7 °F /  12.1 °C 29.97 in /  1014.8 hPa SSW 12.0 mph /  19.3 km/h 27.0 mph /  43.5 km/h 77 % 0.00 in /  0 mm 176 W/m2
13:31 61.2 °F /  16.2 °C 53.5 °F /  11.9 °C 29.97 in /  1014.8 hPa SSW 15.0 mph /  24.1 km/h 27.0 mph /  43.5 km/h 76 % 0.00 in /  0 mm 274 W/m2
13:36 61.3 °F /  16.3 °C 53.7 °F /  12.1 °C 29.96 in /  1014.4 hPa SSW 16.0 mph /  25.7 km/h 26.0 mph /  41.8 km/h 76 % 0.00 in /  0 mm 190 W/m2
13:41 61.3 °F /  16.3 °C 53.7 °F /  12.1 °C 29.96 in /  1014.4 hPa SSW 15.0 mph /  24.1 km/h 25.0 mph /  40.2 km/h 76 % 0.00 in /  0 mm 223 W/m2
13:46 61.3 °F /  16.3 °C 53.7 °F /  12.1 °C 29.96 in /  1014.4 hPa SSW 13.0 mph /  20.9 km/h 24.0 mph /  38.6 km/h 76 % 0.00 in /  0 mm 193 W/m2
13:51 61.5 °F /  16.4 °C 53.9 °F /  12.2 °C 29.96 in /  1014.4 hPa SSW 12.0 mph /  19.3 km/h 21.0 mph /  33.8 km/h 76 % 0.00 in /  0 mm 359 W/m2
13:56 62.1 °F /  16.7 °C 54.4 °F /  12.4 °C 29.96 in /  1014.4 hPa SSW 11.0 mph /  17.7 km/h 19.0 mph /  30.6 km/h 76 % 0.00 in /  0 mm 234 W/m2
14:01 62.2 °F /  16.8 °C 54.2 °F /  12.3 °C 29.95 in /  1014.1 hPa SSW 11.0 mph /  17.7 km/h 22.0 mph /  35.4 km/h 75 % 0.00 in /  0 mm 315 W/m2
14:06 62.4 °F /  16.9 °C 54.0 °F /  12.2 °C 29.95 in /  1014.1 hPa SSW 13.0 mph /  20.9 km/h 24.0 mph /  38.6 km/h 74 % 0.00 in /  0 mm 227 W/m2
14:11 62.6 °F /  17 °C 54.2 °F /  12.3 °C 29.95 in /  1014.1 hPa SW 14.0 mph /  22.5 km/h 24.0 mph /  38.6 km/h 74 % 0.00 in /  0 mm 330 W/m2
14:16 62.8 °F /  17.1 °C 54.0 °F /  12.2 °C 29.95 in /  1014.1 hPa SW 15.0 mph /  24.1 km/h 25.0 mph /  40.2 km/h 73 % 0.00 in /  0 mm 394 W/m2
14:21 63.0 °F /  17.2 °C 54.2 °F /  12.3 °C 29.95 in /  1014.1 hPa SSW 15.0 mph /  24.1 km/h 25.0 mph /  40.2 km/h 73 % 0.00 in /  0 mm 290 W/m2
14:26 63.1 °F /  17.3 °C 54.3 °F /  12.4 °C 29.95 in /  1014.1 hPa SW 15.0 mph /  24.1 km/h 25.0 mph /  40.2 km/h 73 % 0.00 in /  0 mm 288 W/m2
14:31 63.1 °F /  17.3 °C 54.3 °F /  12.4 °C 29.94 in /  1013.8 hPa SW 15.0 mph /  24.1 km/h 26.0 mph /  41.8 km/h 73 % 0.00 in /  0 mm 355 W/m2
14:36 63.5 °F /  17.5 °C 54.3 °F /  12.4 °C 29.95 in /  1014.1 hPa SW 17.0 mph /  27.4 km/h 29.0 mph /  46.7 km/h 72 % 0.00 in /  0 mm 394 W/m2
14:41 63.3 °F /  17.4 °C 54.1 °F /  12.3 °C 29.94 in /  1013.8 hPa SSW 18.0 mph /  29 km/h 30.0 mph /  48.3 km/h 72 % 0.01 in /  0.25 mm 279 W/m2
14:46 63.3 °F /  17.4 °C 54.5 °F /  12.5 °C 29.94 in /  1013.8 hPa SSW 16.0 mph /  25.7 km/h 30.0 mph /  48.3 km/h 73 % 0.01 in /  0.25 mm 332 W/m2
14:51 63.7 °F /  17.6 °C 54.9 °F /  12.7 °C 29.94 in /  1013.8 hPa SSW 15.0 mph /  24.1 km/h 29.0 mph /  46.7 km/h 73 % 0.01 in /  0.25 mm 424 W/m2
14:56 63.7 °F /  17.6 °C 54.5 °F /  12.5 °C 29.94 in /  1013.8 hPa SSW 15.0 mph /  24.1 km/h 29.0 mph /  46.7 km/h 72 % 0.01 in /  0.25 mm 455 W/m2
15:01 63.7 °F /  17.6 °C 54.5 °F /  12.5 °C 29.94 in /  1013.8 hPa SSW 16.0 mph /  25.7 km/h 28.0 mph /  45.1 km/h 72 % 0.01 in /  0.25 mm 454 W/m2
15:06 63.9 °F /  17.7 °C 54.7 °F /  12.6 °C 29.94 in /  1013.8 hPa SW 14.0 mph /  22.5 km/h 25.0 mph /  40.2 km/h 72 % 0.01 in /  0.25 mm 255 W/m2
15:11 63.9 °F /  17.7 °C 54.7 °F /  12.6 °C 29.94 in /  1013.8 hPa SSW 14.0 mph /  22.5 km/h 30.0 mph /  48.3 km/h 72 % 0.01 in /  0.25 mm 362 W/m2
15:16 64.0 °F /  17.8 °C 54.4 °F /  12.4 °C 29.94 in /  1013.8 hPa SW 16.0 mph /  25.7 km/h 30.0 mph /  48.3 km/h 71 % 0.01 in /  0.25 mm 770 W/m2
15:21 64.6 °F /  18.1 °C 55.0 °F /  12.8 °C 29.94 in /  1013.8 hPa SW 17.0 mph /  27.4 km/h 29.0 mph /  46.7 km/h 71 % 0.01 in /  0.25 mm 636 W/m2
15:26 64.8 °F /  18.2 °C 54.3 °F /  12.4 °C 29.93 in /  1013.4 hPa SSW 15.0 mph /  24.1 km/h 26.0 mph /  41.8 km/h 69 % 0.01 in /  0.25 mm 701 W/m2
15:31 64.6 °F /  18.1 °C 54.6 °F /  12.6 °C 29.93 in /  1013.4 hPa SW 15.0 mph /  24.1 km/h 26.0 mph /  41.8 km/h 70 % 0.01 in /  0.25 mm 243 W/m2
15:36 64.6 °F /  18.1 °C 54.2 °F /  12.3 °C 29.93 in /  1013.4 hPa SW 15.0 mph /  24.1 km/h 25.0 mph /  40.2 km/h 69 % 0.00 in /  0 mm 287 W/m2
15:41 64.6 °F /  18.1 °C 54.2 °F /  12.3 °C 29.93 in /  1013.4 hPa SW 15.0 mph /  24.1 km/h 25.0 mph /  40.2 km/h 69 % 0.00 in /  0 mm 186 W/m2
15:46 64.2 °F /  17.9 °C 53.8 °F /  12.1 °C 29.93 in /  1013.4 hPa SW 16.0 mph /  25.7 km/h 29.0 mph /  46.7 km/h 69 % 0.00 in /  0 mm 236 W/m2
15:51 64.2 °F /  17.9 °C 54.6 °F /  12.6 °C 29.93 in /  1013.4 hPa SW 14.0 mph /  22.5 km/h 29.0 mph /  46.7 km/h 71 % 0.00 in /  0 mm 288 W/m2
15:56 64.2 °F /  17.9 °C 54.2 °F /  12.3 °C 29.93 in /  1013.4 hPa SSW 13.0 mph /  20.9 km/h 25.0 mph /  40.2 km/h 70 % 0.00 in /  0 mm 624 W/m2
16:01 64.8 °F /  18.2 °C 54.7 °F /  12.6 °C 29.92 in /  1013.1 hPa SSW 13.0 mph /  20.9 km/h 23.0 mph /  37 km/h 70 % 0.00 in /  0 mm 575 W/m2
16:07 64.9 °F /  18.3 °C 54.5 °F /  12.5 °C 29.92 in /  1013.1 hPa SSW 12.0 mph /  19.3 km/h 20.0 mph /  32.2 km/h 69 % 0.00 in /  0 mm 253 W/m2
16:12 64.8 °F /  18.2 °C 53.9 °F /  12.2 °C 29.92 in /  1013.1 hPa SSW 14.0 mph /  22.5 km/h 25.0 mph /  40.2 km/h 68 % 0.00 in /  0 mm 190 W/m2
16:17 64.0 °F /  17.8 °C 53.7 °F /  12.1 °C 29.92 in /  1013.1 hPa SW 16.0 mph /  25.7 km/h 25.0 mph /  40.2 km/h 69 % 0.00 in /  0 mm 216 W/m2
16:22 63.9 °F /  17.7 °C 53.9 °F /  12.2 °C 29.92 in /  1013.1 hPa SSW 16.0 mph /  25.7 km/h 28.0 mph /  45.1 km/h 70 % 0.00 in /  0 mm 292 W/m2
16:27 63.9 °F /  17.7 °C 53.9 °F /  12.2 °C 29.92 in /  1013.1 hPa SW 16.0 mph /  25.7 km/h 28.0 mph /  45.1 km/h 70 % 0.00 in /  0 mm 206 W/m2
16:32 63.9 °F /  17.7 °C 53.9 °F /  12.2 °C 29.92 in /  1013.1 hPa SW 16.0 mph /  25.7 km/h 29.0 mph /  46.7 km/h 70 % 0.00 in /  0 mm 176 W/m2
16:37 63.9 °F /  17.7 °C 53.9 °F /  12.2 °C 29.92 in /  1013.1 hPa SSW 15.0 mph /  24.1 km/h 29.0 mph /  46.7 km/h 70 % 0.00 in /  0 mm 207 W/m2
16:42 64.2 °F /  17.9 °C 53.8 °F /  12.1 °C 29.92 in /  1013.1 hPa SSW 12.0 mph /  19.3 km/h 23.0 mph /  37 km/h 69 % 0.00 in /  0 mm 264 W/m2
16:47 64.4 °F /  18 °C 53.6 °F /  12 °C 29.92 in /  1013.1 hPa SSW 11.0 mph /  17.7 km/h 24.0 mph /  38.6 km/h 68 % 0.00 in /  0 mm 213 W/m2
16:52 64.4 °F /  18 °C 52.8 °F /  11.6 °C 29.92 in /  1013.1 hPa SW 14.0 mph /  22.5 km/h 30.0 mph /  48.3 km/h 66 % 0.00 in /  0 mm 260 W/m2
16:57 64.4 °F /  18 °C 52.8 °F /  11.6 °C 29.92 in /  1013.1 hPa SW 16.0 mph /  25.7 km/h 30.0 mph /  48.3 km/h 66 % 0.00 in /  0 mm 214 W/m2
17:02 64.4 °F /  18 °C 52.0 °F /  11.1 °C 29.92 in /  1013.1 hPa SW 16.0 mph /  25.7 km/h 28.0 mph /  45.1 km/h 64 % 0.00 in /  0 mm 234 W/m2
17:07 64.6 °F /  18.1 °C 51.7 °F /  10.9 °C 29.91 in /  1012.8 hPa SW 17.0 mph /  27.4 km/h 28.0 mph /  45.1 km/h 63 % 0.00 in /  0 mm 381 W/m2
17:12 64.8 °F /  18.2 °C 51.9 °F /  11.1 °C 29.91 in /  1012.8 hPa SW 17.0 mph /  27.4 km/h 29.0 mph /  46.7 km/h 63 % 0.00 in /  0 mm 302 W/m2
17:17 64.9 °F /  18.3 °C 52.0 °F /  11.1 °C 29.91 in /  1012.8 hPa SW 17.0 mph /  27.4 km/h 29.0 mph /  46.7 km/h 63 % 0.00 in /  0 mm 316 W/m2
17:22 65.1 °F /  18.4 °C 51.8 °F /  11 °C 29.91 in /  1012.8 hPa SSW 15.0 mph /  24.1 km/h 27.0 mph /  43.5 km/h 62 % 0.00 in /  0 mm 339 W/m2
17:27 65.1 °F /  18.4 °C 51.8 °F /  11 °C 29.91 in /  1012.8 hPa SSW 14.0 mph /  22.5 km/h 28.0 mph /  45.1 km/h 62 % 0.00 in /  0 mm 144 W/m2
17:32 64.8 °F /  18.2 °C 51.9 °F /  11.1 °C 29.91 in /  1012.8 hPa SSW 15.0 mph /  24.1 km/h 28.0 mph /  45.1 km/h 63 % 0.00 in /  0 mm 274 W/m2
17:37 64.8 °F /  18.2 °C 51.9 °F /  11.1 °C 29.91 in /  1012.8 hPa SSW 15.0 mph /  24.1 km/h 27.0 mph /  43.5 km/h 63 % 0.00 in /  0 mm 163 W/m2
17:42 64.6 °F /  18.1 °C 51.7 °F /  10.9 °C 29.90 in /  1012.4 hPa SSW 14.0 mph /  22.5 km/h 25.0 mph /  40.2 km/h 63 % 0.00 in /  0 mm 125 W/m2
17:47 64.4 °F /  18 °C 52.0 °F /  11.1 °C 29.90 in /  1012.4 hPa SSW 12.0 mph /  19.3 km/h 24.0 mph /  38.6 km/h 64 % 0.00 in /  0 mm 128 W/m2
17:52 64.2 °F /  17.9 °C 52.2 °F /  11.2 °C 29.90 in /  1012.4 hPa SSW 10.0 mph /  16.1 km/h 21.0 mph /  33.8 km/h 65 % 0.00 in /  0 mm 95 W/m2
17:57 64.0 °F /  17.8 °C 52.0 °F /  11.1 °C 29.90 in /  1012.4 hPa SSW 10.0 mph /  16.1 km/h 21.0 mph /  33.8 km/h 65 % 0.00 in /  0 mm 76 W/m2
18:02 64.0 °F /  17.8 °C 52.0 °F /  11.1 °C 29.90 in /  1012.4 hPa SSW 10.0 mph /  16.1 km/h 16.0 mph /  25.7 km/h 65 % 0.00 in /  0 mm 77 W/m2
18:07 64.0 °F /  17.8 °C 52.4 °F /  11.3 °C 29.90 in /  1012.4 hPa SSW 9.0 mph /  14.5 km/h 16.0 mph /  25.7 km/h 66 % 0.00 in /  0 mm 69 W/m2
18:12 63.9 °F /  17.7 °C 52.7 °F /  11.5 °C 29.90 in /  1012.4 hPa SSW 9.0 mph /  14.5 km/h 15.0 mph /  24.1 km/h 67 % 0.00 in /  0 mm 91 W/m2
18:17 63.9 °F /  17.7 °C 52.7 °F /  11.5 °C 29.90 in /  1012.4 hPa SSW 8.0 mph /  12.9 km/h 15.0 mph /  24.1 km/h 67 % 0.00 in /  0 mm 109 W/m2
18:22 63.9 °F /  17.7 °C 52.3 °F /  11.3 °C 29.90 in /  1012.4 hPa SSW 8.0 mph /  12.9 km/h 15.0 mph /  24.1 km/h 66 % 0.00 in /  0 mm 88 W/m2
18:27 63.9 °F /  17.7 °C 52.3 °F /  11.3 °C 29.90 in /  1012.4 hPa SSW 7.0 mph /  11.3 km/h 14.0 mph /  22.5 km/h 66 % 0.00 in /  0 mm 74 W/m2
18:32 63.7 °F /  17.6 °C 52.1 °F /  11.2 °C 29.90 in /  1012.4 hPa SSW 7.0 mph /  11.3 km/h 13.0 mph /  20.9 km/h 66 % 0.00 in /  0 mm 76 W/m2
18:37 63.7 °F /  17.6 °C 52.1 °F /  11.2 °C 29.90 in /  1012.4 hPa SSW 7.0 mph /  11.3 km/h 14.0 mph /  22.5 km/h 66 % 0.00 in /  0 mm 72 W/m2
18:42 63.7 °F /  17.6 °C 52.1 °F /  11.2 °C 29.90 in /  1012.4 hPa SSW 6.0 mph /  9.7 km/h 14.0 mph /  22.5 km/h 66 % 0.00 in /  0 mm 65 W/m2
18:47 63.7 °F /  17.6 °C 51.7 °F /  10.9 °C 29.89 in /  1012.1 hPa SSW 7.0 mph /  11.3 km/h 15.0 mph /  24.1 km/h 65 % 0.00 in /  0 mm 63 W/m2
18:52 63.7 °F /  17.6 °C 51.3 °F /  10.7 °C 29.89 in /  1012.1 hPa South 8.0 mph /  12.9 km/h 15.0 mph /  24.1 km/h 64 % 0.00 in /  0 mm 49 W/m2
18:57 63.7 °F /  17.6 °C 50.4 °F /  10.2 °C 29.89 in /  1012.1 hPa SSW 9.0 mph /  14.5 km/h 18.0 mph /  29 km/h 62 % 0.00 in /  0 mm 39 W/m2
19:02 63.5 °F /  17.5 °C 50.7 °F /  10.4 °C 29.89 in /  1012.1 hPa SSW 8.0 mph /  12.9 km/h 18.0 mph /  29 km/h 63 % 0.00 in /  0 mm 32 W/m2
19:07 63.3 °F /  17.4 °C 50.9 °F /  10.5 °C 29.89 in /  1012.1 hPa SSW 5.0 mph /  8 km/h 9.0 mph /  14.5 km/h 64 % 0.00 in /  0 mm 30 W/m2
19:12 63.1 °F /  17.3 °C 50.3 °F /  10.2 °C 29.89 in /  1012.1 hPa South 5.0 mph /  8 km/h 14.0 mph /  22.5 km/h 63 % 0.00 in /  0 mm 21 W/m2
19:17 63.1 °F /  17.3 °C 49.9 °F /  9.9 °C 29.89 in /  1012.1 hPa South 8.0 mph /  12.9 km/h 18.0 mph /  29 km/h 62 % 0.00 in /  0 mm 16 W/m2
19:22 63.0 °F /  17.2 °C 49.3 °F /  9.6 °C 29.89 in /  1012.1 hPa South 9.0 mph /  14.5 km/h 18.0 mph /  29 km/h 61 % 0.00 in /  0 mm 11 W/m2
19:27 63.0 °F /  17.2 °C 49.7 °F /  9.8 °C 29.89 in /  1012.1 hPa South 8.0 mph /  12.9 km/h 15.0 mph /  24.1 km/h 62 % 0.00 in /  0 mm 9 W/m2
19:32 62.8 °F /  17.1 °C 49.6 °F /  9.8 °C 29.89 in /  1012.1 hPa South 6.0 mph /  9.7 km/h 11.0 mph /  17.7 km/h 62 % 0.00 in /  0 mm 7 W/m2
19:37 62.4 °F /  16.9 °C 49.2 °F /  9.6 °C 29.89 in /  1012.1 hPa South 6.0 mph /  9.7 km/h 13.0 mph /  20.9 km/h 62 % 0.00 in /  0 mm 7 W/m2
19:43 62.2 °F /  16.8 °C 49.1 °F /  9.5 °C 29.89 in /  1012.1 hPa South 7.0 mph /  11.3 km/h 15.0 mph /  24.1 km/h 62 % 0.00 in /  0 mm 0 W/m2
19:48 62.2 °F /  16.8 °C 48.6 °F /  9.2 °C 29.89 in /  1012.1 hPa South 8.0 mph /  12.9 km/h 16.0 mph /  25.7 km/h 61 % 0.00 in /  0 mm 0 W/m2
19:53 62.1 °F /  16.7 °C 48.4 °F /  9.1 °C 29.89 in /  1012.1 hPa South 8.0 mph /  12.9 km/h 16.0 mph /  25.7 km/h 61 % 0.00 in /  0 mm 0 W/m2
19:58 62.1 °F /  16.7 °C 48.4 °F /  9.1 °C 29.89 in /  1012.1 hPa South 9.0 mph /  14.5 km/h 15.0 mph /  24.1 km/h 61 % 0.00 in /  0 mm 0 W/m2
20:03 62.1 °F /  16.7 °C 48.4 °F /  9.1 °C 29.89 in /  1012.1 hPa South 8.0 mph /  12.9 km/h 16.0 mph /  25.7 km/h 61 % 0.00 in /  0 mm 0 W/m2
20:08 61.9 °F /  16.6 °C 48.3 °F /  9.1 °C 29.89 in /  1012.1 hPa South 8.0 mph /  12.9 km/h 16.0 mph /  25.7 km/h 61 % 0.00 in /  0 mm 0 W/m2
20:13 61.9 °F /  16.6 °C 48.3 °F /  9.1 °C 29.89 in /  1012.1 hPa South 9.0 mph /  14.5 km/h 16.0 mph /  25.7 km/h 61 % 0.00 in /  0 mm 0 W/m2
20:18 61.7 °F /  16.5 °C 48.1 °F /  8.9 °C 29.89 in /  1012.1 hPa South 8.0 mph /  12.9 km/h 15.0 mph /  24.1 km/h 61 % 0.00 in /  0 mm 0 W/m2
20:23 61.5 °F /  16.4 °C 47.9 °F /  8.8 °C 29.89 in /  1012.1 hPa South 7.0 mph /  11.3 km/h 15.0 mph /  24.1 km/h 61 % 0.00 in /  0 mm 0 W/m2
20:28 61.3 °F /  16.3 °C 48.2 °F /  9 °C 29.89 in /  1012.1 hPa South 6.0 mph /  9.7 km/h 12.0 mph /  19.3 km/h 62 % 0.00 in /  0 mm 0 W/m2
20:33 61.3 °F /  16.3 °C 48.2 °F /  9 °C 29.89 in /  1012.1 hPa South 5.0 mph /  8 km/h 11.0 mph /  17.7 km/h 62 % 0.00 in /  0 mm 0 W/m2
20:38 61.2 °F /  16.2 °C 48.0 °F /  8.9 °C 29.88 in /  1011.7 hPa South 5.0 mph /  8 km/h 11.0 mph /  17.7 km/h 62 % 0.00 in /  0 mm 0 W/m2
20:43 61.0 °F /  16.1 °C 48.3 °F /  9.1 °C 29.88 in /  1011.7 hPa South 4.0 mph /  6.4 km/h 9.0 mph /  14.5 km/h 63 % 0.00 in /  0 mm 0 W/m2
20:48 60.8 °F /  16 °C 48.1 °F /  8.9 °C 29.88 in /  1011.7 hPa SSE 4.0 mph /  6.4 km/h 7.0 mph /  11.3 km/h 63 % 0.00 in /  0 mm 0 W/m2
20:53 60.4 °F /  15.8 °C 47.8 °F /  8.8 °C 29.88 in /  1011.7 hPa SSE 5.0 mph /  8 km/h 10.0 mph /  16.1 km/h 63 % 0.00 in /  0 mm 0 W/m2
20:58 60.4 °F /  15.8 °C 48.2 °F /  9 °C 29.88 in /  1011.7 hPa SE 6.0 mph /  9.7 km/h 10.0 mph /  16.1 km/h 64 % 0.00 in /  0 mm 0 W/m2
21:03 60.3 °F /  15.7 °C 48.0 °F /  8.9 °C 29.88 in /  1011.7 hPa SSE 4.0 mph /  6.4 km/h 9.0 mph /  14.5 km/h 64 % 0.00 in /  0 mm 0 W/m2
21:08 60.1 °F /  15.6 °C 47.9 °F /  8.8 °C 29.88 in /  1011.7 hPa SE 3.0 mph /  4.8 km/h 6.0 mph /  9.7 km/h 64 % 0.00 in /  0 mm 0 W/m2
21:13 59.9 °F /  15.5 °C 48.1 °F /  8.9 °C 29.88 in /  1011.7 hPa SE 3.0 mph /  4.8 km/h 6.0 mph /  9.7 km/h 65 % 0.00 in /  0 mm 0 W/m2
21:18 59.7 °F /  15.4 °C 48.3 °F /  9.1 °C 29.88 in /  1011.7 hPa SE 3.0 mph /  4.8 km/h 7.0 mph /  11.3 km/h 66 % 0.00 in /  0 mm 0 W/m2
21:23 59.7 °F /  15.4 °C 48.3 °F /  9.1 °C 29.88 in /  1011.7 hPa SSE 4.0 mph /  6.4 km/h 7.0 mph /  11.3 km/h 66 % 0.00 in /  0 mm 0 W/m2
21:28 59.7 °F /  15.4 °C 48.3 °F /  9.1 °C 29.88 in /  1011.7 hPa South 5.0 mph /  8 km/h 11.0 mph /  17.7 km/h 66 % 0.00 in /  0 mm 0 W/m2
21:33 59.9 °F /  15.5 °C 48.9 °F /  9.4 °C 29.88 in /  1011.7 hPa South 6.0 mph /  9.7 km/h 11.0 mph /  17.7 km/h 67 % 0.00 in /  0 mm 0 W/m2
21:38 60.1 °F /  15.6 °C 49.1 °F /  9.5 °C 29.87 in /  1011.4 hPa South 6.0 mph /  9.7 km/h 18.0 mph /  29 km/h 67 % 0.00 in /  0 mm 0 W/m2
21:43 60.1 °F /  15.6 °C 49.1 °F /  9.5 °C 29.88 in /  1011.7 hPa South 6.0 mph /  9.7 km/h 18.0 mph /  29 km/h 67 % 0.00 in /  0 mm 0 W/m2
21:48 60.1 °F /  15.6 °C 49.1 °F /  9.5 °C 29.87 in /  1011.4 hPa SSW 7.0 mph /  11.3 km/h 13.0 mph /  20.9 km/h 67 % 0.00 in /  0 mm 0 W/m2
21:53 60.3 °F /  15.7 °C 49.3 °F /  9.6 °C 29.87 in /  1011.4 hPa SSW 7.0 mph /  11.3 km/h 13.0 mph /  20.9 km/h 67 % 0.00 in /  0 mm 0 W/m2
21:58 60.3 °F /  15.7 °C 49.3 °F /  9.6 °C 29.88 in /  1011.7 hPa South 7.0 mph /  11.3 km/h 13.0 mph /  20.9 km/h 67 % 0.00 in /  0 mm 0 W/m2
22:03 60.3 °F /  15.7 °C 49.3 °F /  9.6 °C 29.87 in /  1011.4 hPa South 7.0 mph /  11.3 km/h 20.0 mph /  32.2 km/h 67 % 0.00 in /  0 mm 0 W/m2
22:08 60.3 °F /  15.7 °C 49.3 °F /  9.6 °C 29.87 in /  1011.4 hPa South 7.0 mph /  11.3 km/h 20.0 mph /  32.2 km/h 67 % 0.00 in /  0 mm 0 W/m2
22:13 60.3 °F /  15.7 °C 49.7 °F /  9.8 °C 29.87 in /  1011.4 hPa South 7.0 mph /  11.3 km/h 13.0 mph /  20.9 km/h 68 % 0.00 in /  0 mm 0 W/m2
22:18 60.1 °F /  15.6 °C 49.5 °F /  9.7 °C 29.87 in /  1011.4 hPa South 7.0 mph /  11.3 km/h 14.0 mph /  22.5 km/h 68 % 0.00 in /  0 mm 0 W/m2
22:23 60.1 °F /  15.6 °C 49.5 °F /  9.7 °C 29.87 in /  1011.4 hPa South 6.0 mph /  9.7 km/h 14.0 mph /  22.5 km/h 68 % 0.00 in /  0 mm 0 W/m2
22:28 60.1 °F /  15.6 °C 49.5 °F /  9.7 °C 29.86 in /  1011.1 hPa South 7.0 mph /  11.3 km/h 13.0 mph /  20.9 km/h 68 % 0.00 in /  0 mm 0 W/m2
22:33 60.1 °F /  15.6 °C 49.5 °F /  9.7 °C 29.86 in /  1011.1 hPa South 8.0 mph /  12.9 km/h 15.0 mph /  24.1 km/h 68 % 0.00 in /  0 mm 0 W/m2
22:38 60.1 °F /  15.6 °C 49.5 °F /  9.7 °C 29.86 in /  1011.1 hPa South 8.0 mph /  12.9 km/h 15.0 mph /  24.1 km/h 68 % 0.00 in /  0 mm 0 W/m2
22:43 60.1 °F /  15.6 °C 49.5 °F /  9.7 °C 29.86 in /  1011.1 hPa South 7.0 mph /  11.3 km/h 15.0 mph /  24.1 km/h 68 % 0.00 in /  0 mm 0 W/m2
22:48 60.1 °F /  15.6 °C 49.5 °F /  9.7 °C 29.86 in /  1011.1 hPa South 7.0 mph /  11.3 km/h 15.0 mph /  24.1 km/h 68 % 0.00 in /  0 mm 0 W/m2
22:53 59.9 °F /  15.5 °C 49.3 °F /  9.6 °C 29.86 in /  1011.1 hPa South 6.0 mph /  9.7 km/h 13.0 mph /  20.9 km/h 68 % 0.00 in /  0 mm 0 W/m2
22:58 59.7 °F /  15.4 °C 49.5 °F /  9.7 °C 29.85 in /  1010.7 hPa South 6.0 mph /  9.7 km/h 12.0 mph /  19.3 km/h 69 % 0.00 in /  0 mm 0 W/m2
23:03 59.7 °F /  15.4 °C 49.5 °F /  9.7 °C 29.85 in /  1010.7 hPa South 6.0 mph /  9.7 km/h 12.0 mph /  19.3 km/h 69 % 0.00 in /  0 mm 0 W/m2
23:08 59.7 °F /  15.4 °C 49.9 °F /  9.9 °C 29.85 in /  1010.7 hPa South 7.0 mph /  11.3 km/h 14.0 mph /  22.5 km/h 70 % 0.00 in /  0 mm 0 W/m2
23:13 59.5 °F /  15.3 °C 49.7 °F /  9.8 °C 29.85 in /  1010.7 hPa South 7.0 mph /  11.3 km/h 14.0 mph /  22.5 km/h 70 % 0.00 in /  0 mm 0 W/m2
23:18 59.5 °F /  15.3 °C 49.7 °F /  9.8 °C 29.85 in /  1010.7 hPa South 7.0 mph /  11.3 km/h 18.0 mph /  29 km/h 70 % 0.00 in /  0 mm 0 W/m2
23:23 59.5 °F /  15.3 °C 49.7 °F /  9.8 °C 29.85 in /  1010.7 hPa South 7.0 mph /  11.3 km/h 18.0 mph /  29 km/h 70 % 0.00 in /  0 mm 0 W/m2
23:28 59.5 °F /  15.3 °C 49.4 °F /  9.7 °C 29.84 in /  1010.4 hPa South 6.0 mph /  9.7 km/h 15.0 mph /  24.1 km/h 69 % 0.00 in /  0 mm 0 W/m2
23:33 59.5 °F /  15.3 °C 49.7 °F /  9.8 °C 29.84 in /  1010.4 hPa South 7.0 mph /  11.3 km/h 15.0 mph /  24.1 km/h 70 % 0.00 in /  0 mm 0 W/m2
23:39 59.5 °F /  15.3 °C 49.7 °F /  9.8 °C 29.84 in /  1010.4 hPa South 7.0 mph /  11.3 km/h 16.0 mph /  25.7 km/h 70 % 0.00 in /  0 mm 0 W/m2
23:44 59.5 °F /  15.3 °C 49.7 °F /  9.8 °C 29.84 in /  1010.4 hPa South 7.0 mph /  11.3 km/h 16.0 mph /  25.7 km/h 70 % 0.00 in /  0 mm 0 W/m2
23:49 59.4 °F /  15.2 °C 49.6 °F /  9.8 °C 29.84 in /  1010.4 hPa South 6.0 mph /  9.7 km/h 13.0 mph /  20.9 km/h 70 % 0.00 in /  0 mm 0 W/m2
23:54 59.4 °F /  15.2 °C 49.6 °F /  9.8 °C 29.84 in /  1010.4 hPa South 5.0 mph /  8 km/h 10.0 mph /  16.1 km/h 70 % 0.00 in /  0 mm 0 W/m2
23:59 59.2 °F /  15.1 °C 49.8 °F /  9.9 °C 29.84 in /  1010.4 hPa South 6.0 mph /  9.7 km/h 11.0 mph /  17.7 km/h 71 % 0.00 in /  0 mm 0 W/m2
Delerius-Weather
Compliments of Weather Underground - 2.25 mb

Data updates at regular intervals.